ADDS METAR Data INFO
IDs: Format: Raw Decoded Include TAF

Data at: 0405 UTC 11 Dec 2017

KOLE 110355Z AUTO 24010G18KT 2SM -SN BKN023 BKN028 OVC040 M06/M08 A2982 RMK AO2
KOLE 110335Z AUTO 24010G16KT 210V270 3SM -SN BKN023 BKN030 OVC050 M05/M08 A2982 RMK AO2
KOLE 110315Z AUTO 25007G17KT 10SM -SN BKN023 OVC045 M05/M09 A2982 RMK AO2
KOLE 110255Z AUTO 24011G16KT 10SM -SN BKN025 OVC043 M05/M09 A2982 RMK AO2
KOLE 110235Z AUTO 25010G16KT 210V270 10SM -SN OVC027 M05/M09 A2982 RMK AO2
KOLE 110215Z AUTO 24007G17KT 10SM -SN OVC027 M05/M09 A2982 RMK AO2
KOLE 110155Z AUTO 24009G14KT 10SM -SN OVC028 M05/M09 A2982 RMK AO2
KOLE 110135Z AUTO 25006G16KT 10SM -SN OVC028 M05/M08 A2982 RMK AO2
KOLE 110115Z AUTO 24007G17KT 10SM SCT023 BKN032 OVC050 M05/M08 A2982 RMK AO2
KOLE 110055Z AUTO 23007G15KT 210V270 7SM -SN SCT023 BKN030 OVC050 M05/M08 A2982 RMK AO2
KOLE 110035Z AUTO 24008KT 200V280 10SM -SN SCT023 SCT027 OVC035 M05/M08 A2983 RMK AO2
KOLE 110015Z AUTO 26004KT 10SM SCT021 SCT027 OVC035 M05/M08 A2983 RMK AO2
KOLE 102355Z AUTO 24006KT 7SM -SN BKN021 BKN028 OVC035 M05/M08 A2983 RMK AO2
KOLE 102335Z AUTO 24008KT 210V270 4SM -SN OVC021 M05/M07 A2983 RMK AO2
KOLE 102315Z AUTO 25006KT 4SM -SN OVC021 M05/M07 A2982 RMK AO2
KOLE 102255Z AUTO 24008G14KT 7SM -SN OVC023 M05/M08 A2981 RMK AO2
KOLE 102235Z AUTO 24007KT 200V270 10SM -SN OVC023 M05/M08 A2981 RMK AO2
KOLE 102215Z AUTO 25006G14KT 10SM -SN OVC021 M05/M08 A2980 RMK AO2
KOLE 102155Z AUTO 24007KT 7SM -SN OVC021 M05/M08 A2980 RMK AO2
KOLE 102135Z AUTO 24009G15KT 4SM -SN BKN024 OVC030 M05/M08 A2980 RMK AO2
KOLE 102115Z AUTO 24011G18KT 210V270 4SM -SN BKN026 OVC031 M05/M08 A2979 RMK AO2
KOLE 102055Z AUTO 25008KT 4SM -SN BKN026 OVC032 M05/M08 A2979 RMK AO2
KOLE 102035Z AUTO 24007G14KT 210V270 7SM -SN BKN026 OVC034 M04/M08 A2978 RMK AO2
KOLE 102015Z AUTO 24011G20KT 10SM -SN BKN026 OVC043 M04/M08 A2978 RMK AO2
KOLE 101955Z AUTO 25007G18KT 210V280 5SM -SN OVC026 M04/M08 A2978 RMK AO2
KOLE 101935Z AUTO 24013G18KT 7SM -SN BKN026 BKN048 OVC060 M04/M08 A2977 RMK AO2
KOLE 101915Z AUTO 24007G19KT 210V290 7SM -SN BKN026 BKN048 OVC070 M03/M08 A2977 RMK AO2
KOLE 101855Z AUTO 24011G17KT 200V280 10SM OVC026 M04/M08 A2977 RMK AO2
KOLE 101835Z AUTO 24011G17KT 210V270 7SM -SN SCT020 BKN024 OVC033 M04/M08 A2977 RMK AO2
KOLE 101815Z AUTO 25010G19KT 210V290 4SM -SN BKN020 BKN026 OVC070 M04/M08 A2977 RMK AO2
KOLE 101755Z AUTO 24013G17KT 3SM -SN BKN020 BKN025 OVC031 M03/M07 A2977 RMK AO2
KOLE 101735Z AUTO 26010G18KT 230V290 5SM -SN BKN020 OVC025 M03/M07 A2978 RMK AO2
KOLE 101715Z AUTO 25012G18KT 220V280 3SM -SN BKN020 OVC027 M03/M07 A2978 RMK AO2
KOLE 101655Z AUTO 26008G16KT 220V300 4SM -SN BKN020 OVC025 M04/M07 A2978 RMK AO2
KOLE 101635Z AUTO 26008KT 240V310 10SM BKN016 OVC023 M03/M07 A2979 RMK AO2
KOLE 101615Z AUTO 26005KT 10SM OVC016 M04/M07 A2980 RMK AO2
KOLE 101555Z AUTO 26004KT 5SM -SN OVC016 M05/M07 A2980 RMK AO2
KOLE 101535Z AUTO 24003KT 5SM -SN OVC014 M05/M07 A2981 RMK AO2
KOLE 101515Z AUTO 27008KT 240V320 5SM -SN OVC016 M05/M07 A2981 RMK AO2
KOLE 101455Z AUTO 28006G17KT 3SM -SN SCT009 OVC016 M05/M07 A2981 RMK AO2
KOLE 101435Z AUTO 29004KT 3/4SM -SN OVC009 M05/M06 A2980 RMK AO2
KOLE 101415Z AUTO 27005KT 3/4SM -SN OVC007 M05/M06 A2980 RMK AO2
KOLE 101355Z AUTO 27004KT 3/4SM -SN OVC011 M05/M06 A2980 RMK AO2
KOLE 101335Z AUTO 26005KT 1 3/4SM -SN OVC011 M05/M06 A2979 RMK AO2
KOLE 101315Z AUTO 27004KT 2SM -SN BKN013 OVC017 M05/M06 A2978 RMK AO2
KOLE 101255Z AUTO 00000KT 7SM -SN BKN013 BKN018 OVC032 M05/M06 A2977 RMK AO2
KOLE 101235Z AUTO 29003KT 7SM -SN OVC013 M05/M07 A2978 RMK AO2
KOLE 101215Z AUTO 30004G15KT 10SM OVC013 M05/M07 A2977 RMK AO2
KOLE 101155Z AUTO 30007G15KT 260V330 3SM -SN OVC009 M05/M06 A2975 RMK AO2
KOLE 101135Z AUTO 29007KT 2 1/2SM -SN OVC007 M05/M05 A2975 RMK AO2
KOLE 101115Z AUTO 26004KT 1/2SM SN OVC007 M05/M05 A2973 RMK AO2
KOLE 101055Z AUTO 24005KT 3SM -SN OVC009 M05/M05 A2972 RMK AO2
KOLE 101035Z AUTO 25005KT 7SM -SN OVC009 M05/M05 A2972 RMK AO2
KOLE 101015Z AUTO 00000KT 5SM -SN BKN009 OVC017 M05/M05 A2972 RMK AO2
KOLE 100955Z AUTO 25006KT 7SM -SN SCT009 OVC017 M05/M06 A2971 RMK AO2
KOLE 100935Z AUTO 26005KT 10SM -SN BKN008 OVC017 M05/M06 A2971 RMK AO2
KOLE 100915Z AUTO 25004KT 7SM -SN OVC008 M05/M06 A2970 RMK AO2
KOLE 100855Z AUTO 26006KT 220V300 5SM -SN OVC010 M05/M06 A2971 RMK AO2
KOLE 100835Z AUTO 25005KT 5SM -SN OVC010 M05/M06 A2971 RMK AO2
KOLE 100815Z AUTO 26007KT 7SM -SN OVC012 M05/M07 A2971 RMK AO2
KOLE 100755Z AUTO 26006KT 7SM -SN OVC014 M05/M07 A2970 RMK AO2
KOLE 100735Z AUTO 24007KT 210V270 10SM OVC014 M05/M07 A2970 RMK AO2
KOLE 100715Z AUTO 25006KT 190V260 10SM -SN BKN016 BKN033 OVC044 M05/M08 A2970 RMK AO2
KOLE 100655Z AUTO 24004KT 10SM SCT020 BKN033 OVC040 M05/M08 A2969 RMK AO2
KOLE 100635Z AUTO 24007KT 200V270 10SM -SN SCT022 OVC038 M05/M08 A2969 RMK AO2
KOLE 100615Z AUTO 25009G15KT 200V270 10SM SCT022 SCT029 OVC038 M05/M09 A2969 RMK AO2
KOLE 100555Z AUTO 24006KT 10SM BKN023 OVC028 M05/M09 A2969 RMK AO2
KOLE 100535Z AUTO 00000KT 10SM -SN SCT028 OVC038 M05/M10 A2969 RMK AO2
KOLE 100515Z AUTO 00000KT 10SM OVC041 M05/M10 A2969 RMK AO2
KOLE 100455Z AUTO 25003KT 10SM BKN041 OVC090 M05/M10 A2969 RMK AO2
KOLE 100435Z AUTO 25003KT 10SM OVC090 M05/M11 A2969 RMK AO2
KOLE 100415Z AUTO 27005KT 10SM SCT080 OVC100 M05/M11 A2969 RMK AO2
KOLE 100355Z AUTO 27003KT 10SM SCT080 OVC100 M05/M10 A2969 RMK AO2
KOLE 100335Z AUTO 29004KT 10SM OVC090 M05/M11 A2969 RMK AO2
KOLE 100315Z AUTO 00000KT 10SM OVC090 M05/M11 A2969 RMK AO2
KOLE 100255Z AUTO 29005KT 10SM OVC090 M05/M11 A2969 RMK AO2
KOLE 100235Z AUTO 00000KT 10SM SCT075 OVC090 M05/M11 A2969 RMK AO2
KOLE 100215Z AUTO 00000KT 10SM SCT065 OVC090 M04/M12 A2969 RMK AO2
KOLE 100155Z AUTO 00000KT 10SM BKN065 OVC090 M04/M12 A2969 RMK AO2
KOLE 100135Z AUTO 00000KT 10SM OVC090 M04/M12 A2969 RMK AO2
KOLE 100115Z AUTO 31003KT 10SM SCT070 OVC090 M04/M12 A2969 RMK AO2
KOLE 100055Z AUTO 31003KT 10SM OVC090 M04/M11 A2969 RMK AO2
KOLE 100035Z AUTO 32004KT 10SM SCT090 OVC110 M03/M11 A2969 RMK AO2
KOLE 100015Z AUTO 00000KT 10SM BKN110 M03/M12 A2969 RMK AO2
KOLE 092355Z AUTO 00000KT 10SM SCT110 M03/M12 A2969 RMK AO2
KOLE 092335Z AUTO 00000KT 10SM SCT110 M02/M12 A2968 RMK AO2
KOLE 092315Z AUTO 00000KT 10SM OVC110 M03/M12 A2968 RMK AO2
KOLE 092255Z AUTO 00000KT 10SM BKN110 M02/M12 A2968 RMK AO2
KOLE 092235Z AUTO 00000KT 10SM SCT110 M03/M12 A2968 RMK AO2
KOLE 092215Z AUTO 00000KT 10SM CLR M02/M13 A2968 RMK AO2
KOLE 092155Z AUTO 00000KT 10SM CLR M02/M13 A2967 RMK AO2
KOLE 092135Z AUTO 00000KT 10SM CLR M02/M12 A2967 RMK AO2
KOLE 092115Z AUTO 00000KT 10SM CLR M02/M12 A2967 RMK AO2
KOLE 092055Z AUTO 00000KT 10SM CLR M01/M12 A2966 RMK AO2
KOLE 092035Z AUTO 20003KT 10SM CLR M01/M12 A2966 RMK AO2
KOLE 092015Z AUTO 00000KT 10SM CLR M01/M12 A2966 RMK AO2
KOLE 091955Z AUTO 16004KT 10SM CLR M01/M12 A2966 RMK AO2
KOLE 091935Z AUTO 19004KT 10SM CLR M01/M11 A2966 RMK AO2
KOLE 091915Z AUTO 19004KT 10SM CLR M01/M11 A2966 RMK AO2
KOLE 091855Z AUTO 20004KT 10SM CLR M02/M12 A2967 RMK AO2
KOLE 091835Z AUTO 24004KT 10SM CLR M02/M11 A2968 RMK AO2
KOLE 091815Z AUTO 21004KT 10SM CLR M02/M11 A2969 RMK AO2
KOLE 091755Z AUTO 20005KT 10SM CLR M02/M11 A2970 RMK AO2
KOLE 091735Z AUTO 22005KT 10SM CLR M03/M12 A2971 RMK AO2
KOLE 091715Z AUTO 20008KT 10SM SCT110 M04/M12 A2971 RMK AO2
KOLE 091655Z AUTO 20008KT 10SM BKN110 M05/M12 A2972 RMK AO2
KOLE 091635Z AUTO 20008KT 10SM SCT110 M05/M11 A2973 RMK AO2
KOLE 091615Z AUTO 22006KT 10SM CLR M06/M11 A2975 RMK AO2